createdAt,value
2022-12-25T00:01:42.833Z,101048.59
2022-12-25T00:04:09.947Z,101050.28
2022-12-25T00:06:37.408Z,101050.94
2022-12-25T00:09:04.847Z,101049.41
2022-12-25T00:11:31.926Z,101055.84
2022-12-25T00:13:58.967Z,101051.94
2022-12-25T00:16:27.675Z,101051.50
2022-12-25T00:18:56.963Z,101053.13
2022-12-25T00:21:25.200Z,101061.13
2022-12-25T00:23:58.184Z,101059.03
2022-12-25T00:26:27.392Z,101062.63
2022-12-25T00:28:56.869Z,101061.78
2022-12-25T00:31:25.640Z,101057.22
2022-12-25T00:33:52.931Z,101050.47
2022-12-25T00:36:25.037Z,101055.81
2022-12-25T00:38:52.158Z,101056.13
2022-12-25T00:41:42.714Z,101067.59
2022-12-25T00:44:13.771Z,101064.47
2022-12-25T00:46:42.633Z,101061.03
2022-12-25T00:49:11.885Z,101065.75
2022-12-25T00:51:39.168Z,101074.78
2022-12-25T00:54:06.407Z,101071.66
2022-12-25T00:56:33.874Z,101075.22
2022-12-25T00:59:01.081Z,101075.34
2022-12-25T01:01:28.260Z,101092.63
2022-12-25T01:03:55.965Z,101093.69
2022-12-25T01:06:23.076Z,101098.31
2022-12-25T01:09:08.706Z,101110.41
2022-12-25T01:11:36.092Z,101103.06
2022-12-25T01:14:03.793Z,101104.81
2022-12-25T01:16:30.946Z,101117.28
2022-12-25T01:18:58.190Z,101121.63
2022-12-25T01:21:25.604Z,101117.00
2022-12-25T01:23:53.725Z,101118.31
2022-12-25T01:26:24.608Z,101120.00
2022-12-25T01:28:53.088Z,101116.94
2022-12-25T01:31:24.411Z,101129.44
2022-12-25T01:33:52.210Z,101128.16
2022-12-25T01:36:26.032Z,101139.69
2022-12-25T01:38:54.273Z,101145.22
2022-12-25T01:41:25.165Z,101149.22
2022-12-25T01:44:37.901Z,101146.69
2022-12-25T01:47:07.356Z,101146.94
2022-12-25T01:49:38.940Z,101140.59
2022-12-25T01:52:23.852Z,101153.22
2022-12-25T01:55:06.150Z,101150.19
2022-12-25T01:57:37.407Z,101143.03
2022-12-25T02:00:08.588Z,101148.72
2022-12-25T02:02:36.816Z,101151.69
2022-12-25T02:05:31.822Z,101157.47
2022-12-25T02:08:08.601Z,101166.59
2022-12-25T02:10:36.120Z,101164.16
2022-12-25T02:13:03.739Z,101171.06
2022-12-25T02:16:22.696Z,101163.50
2022-12-25T02:19:08.908Z,101158.41
2022-12-25T02:22:23.064Z,101155.19
2022-12-25T02:25:44.216Z,101165.19
2022-12-25T02:28:32.448Z,101166.38
2022-12-25T02:31:13.114Z,101168.00
2022-12-25T02:34:28.145Z,101173.03
2022-12-25T02:37:23.104Z,101172.63
2022-12-25T02:40:11.799Z,101175.97
2022-12-25T02:43:27.143Z,101168.28
2022-12-25T02:46:28.022Z,101178.16
2022-12-25T02:49:20.204Z,101176.41
2022-12-25T02:52:20.794Z,101183.16
2022-12-25T02:55:16.410Z,101183.94
2022-12-25T02:58:09.696Z,101182.25
2022-12-25T03:01:03.300Z,101182.88
2022-12-25T03:03:55.454Z,101174.66
2022-12-25T03:06:44.890Z,101176.94
2022-12-25T03:09:43.100Z,101179.84
2022-12-25T03:12:50.594Z,101179.84
2022-12-25T03:15:38.355Z,101179.09
2022-12-25T03:18:14.414Z,101183.94
2022-12-25T03:21:00.600Z,101187.88
2022-12-25T03:23:52.561Z,101186.31
2022-12-25T03:26:38.664Z,101187.06
2022-12-25T03:29:06.029Z,101181.44
2022-12-25T03:31:53.515Z,101185.94
2022-12-25T03:35:11.810Z,101184.25
2022-12-25T03:38:33.990Z,101196.16
2022-12-25T03:41:33.062Z,101199.63
2022-12-25T03:44:41.201Z,101201.22
2022-12-25T03:47:35.243Z,101201.75
2022-12-25T03:50:44.492Z,101212.03
2022-12-25T03:53:42.806Z,101211.25
2022-12-25T03:56:29.691Z,101214.22
2022-12-25T03:59:23.093Z,101218.31
2022-12-25T04:02:10.826Z,101223.53
2022-12-25T04:04:56.778Z,101221.91
2022-12-25T04:07:42.707Z,101223.63
2022-12-25T04:10:29.451Z,101226.06
2022-12-25T04:13:15.106Z,101235.19
2022-12-25T04:16:00.877Z,101236.50
2022-12-25T04:18:46.616Z,101252.38
2022-12-25T04:21:32.286Z,101249.59
2022-12-25T04:24:18.164Z,101244.69
2022-12-25T04:27:03.860Z,101246.09
2022-12-25T04:29:49.567Z,101237.91
2022-12-25T04:32:35.302Z,101234.91
2022-12-25T04:35:21.021Z,101243.47
2022-12-25T04:37:48.059Z,101244.16
2022-12-25T04:40:15.344Z,101251.66
2022-12-25T04:42:42.505Z,101249.44
2022-12-25T04:45:10.896Z,101253.34
2022-12-25T04:47:38.151Z,101254.22
2022-12-25T04:50:06.150Z,101259.59
2022-12-25T04:52:41.737Z,101250.81
2022-12-25T04:55:11.659Z,101249.50
2022-12-25T04:57:39.068Z,101243.22
2022-12-25T05:00:07.788Z,101248.59
2022-12-25T05:02:35.232Z,101255.44
2022-12-25T05:05:02.505Z,101259.16
2022-12-25T05:07:29.654Z,101250.25
2022-12-25T05:09:56.802Z,101251.47
2022-12-25T05:12:24.114Z,101244.88
2022-12-25T05:14:51.180Z,101245.56
2022-12-25T05:17:18.279Z,101240.16
2022-12-25T05:19:45.747Z,101240.44
2022-12-25T05:22:12.892Z,101252.00
2022-12-25T05:24:39.916Z,101252.84
2022-12-25T05:27:07.117Z,101252.47
2022-12-25T05:29:34.203Z,101248.06
2022-12-25T05:32:01.586Z,101246.19
2022-12-25T05:34:28.693Z,101242.47
2022-12-25T05:36:56.618Z,101245.34
2022-12-25T05:39:24.231Z,101242.72
2022-12-25T05:41:51.488Z,101241.22
2022-12-25T05:44:18.531Z,101233.53
2022-12-25T05:46:45.775Z,101233.41
2022-12-25T05:49:12.942Z,101246.00
2022-12-25T05:51:40.127Z,101238.81
2022-12-25T05:54:07.207Z,101236.94
2022-12-25T05:56:34.374Z,101242.03
2022-12-25T05:59:01.462Z,101237.19
2022-12-25T06:01:29.478Z,101231.69
2022-12-25T06:03:57.630Z,101239.00
2022-12-25T06:06:25.329Z,101233.19
2022-12-25T06:08:55.196Z,101234.34
2022-12-25T06:11:22.768Z,101232.44
2022-12-25T06:13:53.669Z,101230.00
2022-12-25T06:16:21.465Z,101226.59
2022-12-25T06:18:52.272Z,101219.66
2022-12-25T06:21:19.570Z,101214.69
2022-12-25T06:23:46.851Z,101210.44
2022-12-25T06:26:19.766Z,101211.47
2022-12-25T06:28:47.450Z,101202.88
2022-12-25T06:31:20.240Z,101215.63
2022-12-25T06:33:48.162Z,101224.03
2022-12-25T06:36:23.689Z,101236.94
2022-12-25T06:38:51.889Z,101231.88
2022-12-25T06:41:26.013Z,101223.56
2022-12-25T06:44:00.811Z,101226.34
2022-12-25T06:46:30.691Z,101226.94
2022-12-25T06:49:00.635Z,101230.16
2022-12-25T06:51:32.110Z,101236.88
2022-12-25T06:54:03.700Z,101233.34
2022-12-25T06:56:33.383Z,101238.63
2022-12-25T06:59:09.754Z,101236.19
2022-12-25T07:01:56.311Z,101247.16
2022-12-25T07:04:40.201Z,101246.94
2022-12-25T07:07:09.794Z,101242.72
2022-12-25T07:09:38.861Z,101245.63
2022-12-25T07:12:23.718Z,101255.00
2022-12-25T07:14:55.066Z,101250.38
2022-12-25T07:17:24.086Z,101254.78
2022-12-25T07:19:51.252Z,101257.44
2022-12-25T07:22:18.495Z,101270.31
2022-12-25T07:24:45.648Z,101276.72
2022-12-25T07:27:13.238Z,101280.31
2022-12-25T07:29:40.315Z,101283.88
2022-12-25T07:32:07.477Z,101283.66
2022-12-25T07:34:34.564Z,101282.56
2022-12-25T07:37:01.798Z,101282.25
2022-12-25T07:39:28.976Z,101295.72
2022-12-25T07:41:56.087Z,101301.03
2022-12-25T07:44:23.164Z,101304.91
2022-12-25T07:46:50.304Z,101300.88
2022-12-25T07:49:17.413Z,101298.63
2022-12-25T07:51:44.595Z,101287.53
2022-12-25T07:54:11.795Z,101290.41
2022-12-25T07:56:38.898Z,101290.63
2022-12-25T07:59:05.956Z,101284.63
2022-12-25T08:01:33.184Z,101277.00
2022-12-25T08:04:02.718Z,101281.75
2022-12-25T08:06:34.298Z,101286.03
2022-12-25T08:09:12.683Z,101288.19
2022-12-25T08:11:45.397Z,101283.69
2022-12-25T08:14:13.116Z,101286.38
2022-12-25T08:16:41.592Z,101288.41
2022-12-25T08:19:10.256Z,101301.50
2022-12-25T08:21:38.450Z,101301.56
2022-12-25T08:24:05.976Z,101300.66
2022-12-25T08:26:33.475Z,101295.69
2022-12-25T08:29:00.645Z,101305.19
2022-12-25T08:31:30.541Z,101311.63
2022-12-25T08:34:01.793Z,101320.50
2022-12-25T08:36:29.565Z,101319.53
2022-12-25T08:39:02.643Z,101317.53
2022-12-25T08:41:32.370Z,101309.13
2022-12-25T08:43:59.557Z,101298.66
2022-12-25T08:46:26.736Z,101301.81
2022-12-25T08:48:54.317Z,101299.19
2022-12-25T08:51:25.121Z,101293.44
2022-12-25T08:53:59.140Z,101302.28
2022-12-25T08:56:27.074Z,101306.38
2022-12-25T08:58:54.740Z,101297.97
2022-12-25T09:01:21.975Z,101289.94
2022-12-25T09:03:49.284Z,101278.91
2022-12-25T09:06:17.415Z,101276.25
2022-12-25T09:08:49.180Z,101271.13
2022-12-25T09:11:19.655Z,101257.31
2022-12-25T09:13:48.570Z,101247.91
2022-12-25T09:16:21.099Z,101239.38
2022-12-25T09:18:48.639Z,101234.06
2022-12-25T09:21:17.848Z,101231.44
2022-12-25T09:23:45.637Z,101231.38
2022-12-25T09:26:17.474Z,101226.31
2022-12-25T09:28:51.225Z,101222.72
2022-12-25T09:31:21.247Z,101232.31
2022-12-25T09:33:49.284Z,101229.31
2022-12-25T09:36:16.727Z,101227.97
2022-12-25T09:38:43.980Z,101228.75
2022-12-25T09:41:29.160Z,101227.16
2022-12-25T09:44:16.662Z,101212.44
2022-12-25T09:47:13.803Z,101214.38
2022-12-25T09:50:37.993Z,101213.41
2022-12-25T09:53:27.321Z,101223.72
2022-12-25T09:56:33.359Z,101237.53
2022-12-25T09:59:00.566Z,101240.44
2022-12-25T10:01:59.965Z,101244.38
2022-12-25T10:05:30.528Z,101250.34
2022-12-25T10:08:26.600Z,101241.44
2022-12-25T10:11:21.283Z,101244.97
2022-12-25T10:14:08.571Z,101250.03
2022-12-25T10:17:15.041Z,101246.31
2022-12-25T10:20:00.970Z,101243.56
2022-12-25T10:22:42.742Z,101247.28
2022-12-25T10:25:22.221Z,101252.72
2022-12-25T10:28:09.892Z,101249.94
2022-12-25T10:30:37.564Z,101250.13
2022-12-25T10:33:05.070Z,101232.34
2022-12-25T10:35:33.076Z,101232.84
2022-12-25T10:38:22.565Z,101227.13
2022-12-25T10:41:39.955Z,101222.28
2022-12-25T10:44:21.058Z,101221.75
2022-12-25T10:46:51.680Z,101214.16
2022-12-25T10:49:24.476Z,101204.91
2022-12-25T10:51:52.163Z,101199.00
2022-12-25T10:54:35.963Z,101200.78
2022-12-25T10:57:16.188Z,101209.97
2022-12-25T10:59:51.536Z,101189.03
2022-12-25T11:02:36.497Z,101196.00
2022-12-25T11:05:32.087Z,101189.34
2022-12-25T11:08:03.121Z,101204.00
2022-12-25T11:10:44.501Z,101199.19
2022-12-25T11:13:30.664Z,101203.84
2022-12-25T11:16:38.106Z,101201.72
2022-12-25T11:19:29.667Z,101205.28
2022-12-25T11:22:01.448Z,101203.84
2022-12-25T11:24:33.291Z,101205.63
2022-12-25T11:27:09.077Z,101196.97
2022-12-25T11:29:51.748Z,101194.97
2022-12-25T11:32:37.603Z,101182.19
2022-12-25T11:35:18.530Z,101185.56
2022-12-25T11:37:52.630Z,101198.63
2022-12-25T11:40:49.940Z,101205.25
2022-12-25T11:43:46.720Z,101194.25
2022-12-25T11:46:45.919Z,101167.91
2022-12-25T11:49:19.536Z,101172.09
2022-12-25T11:51:51.926Z,101166.81
2022-12-25T11:54:41.893Z,101149.31
2022-12-25T11:57:11.641Z,101143.31
2022-12-25T11:59:56.428Z,101118.66
2022-12-25T12:02:36.318Z,101104.41
2022-12-25T12:05:46.229Z,101089.34
2022-12-25T12:08:14.356Z,101082.66
2022-12-25T12:11:15.946Z,101075.69
2022-12-25T12:14:20.293Z,101074.41
2022-12-25T12:16:47.428Z,101094.47
2022-12-25T12:19:31.619Z,101099.47
2022-12-25T12:22:04.819Z,101108.50
2022-12-25T12:24:42.658Z,101109.66
2022-12-25T12:27:39.210Z,101116.50
2022-12-25T12:30:23.242Z,101123.38
2022-12-25T12:32:58.616Z,101122.13
2022-12-25T12:35:36.512Z,101105.91
2022-12-25T12:38:15.499Z,101093.38
2022-12-25T12:41:07.150Z,101094.28
2022-12-25T12:44:05.119Z,101093.56
2022-12-25T12:46:56.924Z,101095.25
2022-12-25T12:49:27.830Z,101093.00
2022-12-25T12:52:42.008Z,101071.84
2022-12-25T12:55:15.032Z,101079.22
2022-12-25T12:57:42.830Z,101071.56
2022-12-25T13:00:22.953Z,101081.59
2022-12-25T13:03:32.550Z,101076.50
2022-12-25T13:06:29.947Z,101067.28
2022-12-25T13:09:52.945Z,101071.97
2022-12-25T13:12:22.196Z,101079.97
2022-12-25T13:14:50.040Z,101081.03
2022-12-25T13:17:24.802Z,101076.59
2022-12-25T13:20:24.676Z,101073.16
2022-12-25T13:22:53.143Z,101062.25
2022-12-25T13:25:24.730Z,101074.31
2022-12-25T13:27:57.734Z,101063.16
2022-12-25T13:30:25.968Z,101070.75
2022-12-25T13:32:53.470Z,101065.81
2022-12-25T13:35:22.806Z,101053.56
2022-12-25T13:37:50.109Z,101054.03
2022-12-25T13:40:27.462Z,101052.53
2022-12-25T13:43:01.771Z,101048.25
2022-12-25T13:45:31.532Z,101044.13
2022-12-25T13:48:20.824Z,101020.53
2022-12-25T13:50:59.086Z,101016.16
2022-12-25T13:53:27.640Z,101017.56
2022-12-25T13:55:57.387Z,101026.88
2022-12-25T13:58:34.961Z,101025.22
2022-12-25T14:01:03.823Z,101027.31
2022-12-25T14:03:42.887Z,101016.19
2022-12-25T14:06:30.982Z,101004.63
2022-12-25T14:08:59.585Z,101001.13
2022-12-25T14:11:29.845Z,101003.56
2022-12-25T14:14:14.907Z,100988.16
2022-12-25T14:16:44.802Z,101005.47
2022-12-25T14:19:32.985Z,101001.41
2022-12-25T14:22:22.625Z,100995.09
2022-12-25T14:24:49.757Z,101003.31
2022-12-25T14:27:28.881Z,101012.03
2022-12-25T14:29:59.523Z,101008.88
2022-12-25T14:32:38.694Z,100995.78
2022-12-25T14:35:06.583Z,100998.47
2022-12-25T14:37:34.247Z,101001.75
2022-12-25T14:40:45.429Z,100998.19
2022-12-25T14:43:26.591Z,101005.88
2022-12-25T14:46:08.073Z,101000.84
2022-12-25T14:48:35.303Z,100995.94
2022-12-25T14:51:17.280Z,100993.28
2022-12-25T14:53:55.355Z,100990.91
2022-12-25T14:56:26.177Z,100981.94
2022-12-25T14:58:58.044Z,100974.28
2022-12-25T15:01:41.709Z,100955.13
2022-12-25T15:04:11.925Z,100957.53
2022-12-25T15:07:11.297Z,100957.97
2022-12-25T15:09:40.153Z,100958.91
2022-12-25T15:12:08.431Z,100954.78
2022-12-25T15:14:38.359Z,100949.94
2022-12-25T15:17:05.694Z,100935.88
2022-12-25T15:19:38.798Z,100920.34
2022-12-25T15:22:06.432Z,100931.47
2022-12-25T15:24:33.684Z,100929.38
2022-12-25T15:27:01.094Z,100932.50
2022-12-25T15:32:24.277Z,100947.69
2022-12-25T15:34:51.455Z,100932.56
2022-12-25T15:37:19.535Z,100938.50
2022-12-25T15:39:47.067Z,100944.84
2022-12-25T15:42:21.536Z,100944.47
2022-12-25T15:44:48.905Z,100942.19
2022-12-25T15:47:20.238Z,100939.44
2022-12-25T15:49:47.620Z,100937.75
2022-12-25T15:52:17.127Z,100927.25
2022-12-25T15:54:44.571Z,100917.63
2022-12-25T15:57:21.909Z,100920.69
2022-12-25T15:59:49.006Z,100918.69
2022-12-25T16:02:20.720Z,100913.50
2022-12-25T16:04:48.908Z,100913.44
2022-12-25T16:07:20.918Z,100914.94
2022-12-25T16:09:48.120Z,100916.41
2022-12-25T16:12:15.421Z,100904.19
2022-12-25T16:14:42.538Z,100893.22
2022-12-25T16:17:15.422Z,100887.41
2022-12-25T16:19:45.213Z,100884.16
2022-12-25T16:22:18.458Z,100880.59
2022-12-25T16:24:45.525Z,100875.34
2022-12-25T16:27:12.629Z,100871.00
2022-12-25T16:29:39.679Z,100882.09
2022-12-25T16:32:06.750Z,100875.63
2022-12-25T16:34:33.902Z,100865.72
2022-12-25T16:37:00.958Z,100865.25
2022-12-25T16:39:28.475Z,100864.31
2022-12-25T16:41:55.564Z,100866.69
2022-12-25T16:44:22.708Z,100866.00
2022-12-25T16:46:49.778Z,100867.38
2022-12-25T16:49:19.738Z,100859.19
2022-12-25T16:51:46.823Z,100838.91
2022-12-25T16:54:14.395Z,100830.47
2022-12-25T16:56:41.522Z,100831.28
2022-12-25T16:59:08.991Z,100818.50
2022-12-25T17:01:37.914Z,100808.53
2022-12-25T17:04:05.321Z,100814.88
2022-12-25T17:06:32.707Z,100799.94
2022-12-25T17:09:02.402Z,100791.16
2022-12-25T17:11:30.866Z,100789.09
2022-12-25T17:14:02.582Z,100783.38
2022-12-25T17:16:36.406Z,100774.19
2022-12-25T17:19:17.834Z,100781.22
2022-12-25T17:21:44.943Z,100781.88
2022-12-25T17:24:12.313Z,100776.50
2022-12-25T17:26:41.418Z,100772.31
2022-12-25T17:29:09.225Z,100771.81
2022-12-25T17:31:37.765Z,100777.88
2022-12-25T17:34:06.312Z,100773.25
2022-12-25T17:36:33.600Z,100767.88
2022-12-25T17:39:03.527Z,100768.66
2022-12-25T17:41:30.985Z,100769.47
2022-12-25T17:43:58.286Z,100763.31
2022-12-25T17:46:29.714Z,100765.28
2022-12-25T17:49:00.983Z,100772.53
2022-12-25T17:51:30.909Z,100771.63
2022-12-25T17:54:03.197Z,100770.66
2022-12-25T17:56:31.864Z,100768.31
2022-12-25T17:59:06.477Z,100750.16
2022-12-25T18:01:35.296Z,100742.84
2022-12-25T18:04:03.241Z,100723.75
2022-12-25T18:06:30.416Z,100723.44
2022-12-25T18:08:58.710Z,100699.06
2022-12-25T18:11:32.648Z,100687.22
2022-12-25T18:17:40.173Z,100690.53
2022-12-25T18:20:08.736Z,100691.59
2022-12-25T18:22:36.314Z,100688.56
2022-12-25T18:25:04.145Z,100686.38
2022-12-25T18:27:31.271Z,100678.44
2022-12-25T18:29:58.412Z,100672.28
2022-12-25T18:32:28.227Z,100667.59
2022-12-25T18:34:56.098Z,100652.63
2022-12-25T18:37:23.243Z,100645.06
2022-12-25T18:39:50.366Z,100646.44
2022-12-25T18:42:36.121Z,100653.19
2022-12-25T18:45:03.608Z,100652.09
2022-12-25T18:47:30.740Z,100654.97
2022-12-25T18:49:57.952Z,100662.34
2022-12-25T18:52:50.372Z,100657.66
2022-12-25T18:55:12.291Z,100647.19
2022-12-25T18:57:40.861Z,100638.97
2022-12-25T19:00:09.388Z,100632.19
2022-12-25T19:02:36.610Z,100633.28
2022-12-25T19:05:05.789Z,100605.09
2022-12-25T19:07:33.041Z,100584.47
2022-12-25T19:10:00.135Z,100579.75
2022-12-25T19:12:27.226Z,100571.41
2022-12-25T19:14:54.289Z,100576.72
2022-12-25T19:17:24.329Z,100577.81
2022-12-25T19:19:53.754Z,100578.66
2022-12-25T19:22:20.827Z,100577.06
2022-12-25T19:24:47.941Z,100574.66
2022-12-25T19:27:15.035Z,100561.56
2022-12-25T19:29:42.107Z,100565.84
2022-12-25T19:32:09.286Z,100561.22
2022-12-25T19:34:36.635Z,100544.31
2022-12-25T19:37:04.262Z,100555.84
2022-12-25T19:39:31.380Z,100545.97
2022-12-25T19:41:58.525Z,100533.81
2022-12-25T19:44:25.772Z,100533.91
2022-12-25T19:46:53.459Z,100521.75
2022-12-25T19:49:20.614Z,100525.94
2022-12-25T19:51:48.656Z,100515.38
2022-12-25T19:54:19.240Z,100518.31
2022-12-25T19:56:48.704Z,100512.09
2022-12-25T19:59:16.125Z,100504.19
2022-12-25T20:01:43.666Z,100513.25
2022-12-25T20:04:11.490Z,100493.25
2022-12-25T20:06:40.685Z,100512.91
2022-12-25T20:09:15.338Z,100505.28
2022-12-25T20:11:43.531Z,100503.09
2022-12-25T20:14:16.451Z,100506.16
2022-12-25T20:16:49.660Z,100515.78
2022-12-25T20:19:16.788Z,100490.16
2022-12-25T20:21:43.860Z,100483.88
2022-12-25T20:24:11.360Z,100503.06
2022-12-25T20:26:42.869Z,100489.59
2022-12-25T20:29:11.534Z,100480.94
2022-12-25T20:31:38.585Z,100482.53
2022-12-25T20:34:10.945Z,100486.28
2022-12-25T20:36:38.466Z,100479.50
2022-12-25T20:39:11.858Z,100462.31
2022-12-25T20:41:39.758Z,100462.88
2022-12-25T20:44:09.887Z,100463.84
2022-12-25T20:46:37.537Z,100463.63
2022-12-25T20:49:04.996Z,100475.72
2022-12-25T20:51:32.689Z,100450.16
2022-12-25T20:53:59.712Z,100449.06
2022-12-25T20:56:27.488Z,100458.25
2022-12-25T20:58:58.445Z,100461.97
2022-12-25T21:01:28.336Z,100450.44
2022-12-25T21:03:56.937Z,100447.22
2022-12-25T21:06:24.780Z,100466.56
2022-12-25T21:08:51.934Z,100442.72
2022-12-25T21:11:21.171Z,100444.06
2022-12-25T21:13:49.044Z,100440.53
2022-12-25T21:16:22.119Z,100434.00
2022-12-25T21:18:54.163Z,100439.06
2022-12-25T21:21:22.170Z,100433.25
2022-12-25T21:23:49.580Z,100426.78
2022-12-25T21:26:21.720Z,100427.97
2022-12-25T21:28:52.551Z,100430.22
2022-12-25T21:31:20.928Z,100435.13
2022-12-25T21:33:54.951Z,100414.63
2022-12-25T21:36:33.560Z,100423.25
2022-12-25T21:39:06.288Z,100429.63
2022-12-25T21:41:37.064Z,100416.38
2022-12-25T21:44:05.148Z,100417.84
2022-12-25T21:46:32.406Z,100408.56
2022-12-25T21:49:00.125Z,100403.91
2022-12-25T21:51:50.948Z,100397.66
2022-12-25T21:54:21.699Z,100396.19
2022-12-25T21:56:50.627Z,100397.22
2022-12-25T21:59:21.586Z,100400.34
2022-12-25T22:01:51.230Z,100399.09
2022-12-25T22:04:22.390Z,100402.22
2022-12-25T22:07:08.376Z,100405.13
2022-12-25T22:09:35.712Z,100397.22
2022-12-25T22:12:22.349Z,100391.28
2022-12-25T22:14:55.221Z,100396.81
2022-12-25T22:17:50.812Z,100395.88
2022-12-25T22:20:34.549Z,100382.00
2022-12-25T22:23:02.540Z,100405.22
2022-12-25T22:25:30.064Z,100400.16
2022-12-25T22:27:57.995Z,100404.53
2022-12-25T22:30:28.482Z,100423.16
2022-12-25T22:32:56.223Z,100412.00
2022-12-25T22:35:24.366Z,100401.38
2022-12-25T22:37:51.472Z,100391.97
2022-12-25T22:40:20.713Z,100401.91
2022-12-25T22:42:48.333Z,100405.66
2022-12-25T22:45:15.633Z,100397.59
2022-12-25T22:47:42.945Z,100377.63
2022-12-25T22:50:12.172Z,100378.56
2022-12-25T22:52:39.422Z,100372.16
2022-12-25T22:55:08.860Z,100370.75
2022-12-25T22:57:36.177Z,100365.28
2022-12-25T23:00:06.334Z,100362.81
2022-12-25T23:02:35.059Z,100366.00
2022-12-25T23:05:03.277Z,100371.13
2022-12-25T23:07:30.321Z,100359.88
2022-12-25T23:09:57.360Z,100352.22
2022-12-25T23:12:42.969Z,100354.75
2022-12-25T23:15:10.948Z,100354.22
2022-12-25T23:17:56.790Z,100353.19
2022-12-25T23:20:42.287Z,100360.16
2022-12-25T23:23:34.921Z,100361.25
2022-12-25T23:26:09.303Z,100365.53
2022-12-25T23:29:01.165Z,100361.47
2022-12-25T23:31:41.134Z,100357.94
2022-12-25T23:34:09.809Z,100343.13
2022-12-25T23:36:37.052Z,100339.63
2022-12-25T23:39:09.745Z,100354.59
2022-12-25T23:41:43.606Z,100353.44
2022-12-25T23:44:12.834Z,100333.69
2022-12-25T23:46:42.065Z,100333.81
2022-12-25T23:49:22.863Z,100343.28
2022-12-25T23:51:50.009Z,100349.22
2022-12-25T23:54:26.794Z,100339.75
2022-12-25T23:56:57.160Z,100360.59
2022-12-25T23:59:27.479Z,100357.78
